Time;durP1;ratioP1;P1;durP2;ratioP2;P2;SDS_P1;SDS_P2;PMS_P1;PMS_P2;Temp;Humidity;BMP_temperature;BMP_pressure;BME280_temperature;BME280_humidity;BME280_pressure;Samples;Min_cycle;Max_cycle;Signal;HPM_P1;HPM_P2
2022/03/08 00:00:47;;;;;;;16.92;9.90;;;;;;;-0.66;85.11;102249.22;5094397;28;20047;-76
2022/03/08 00:03:12;;;;;;;16.67;9.52;;;;;;;-0.71;85.70;102232.94;5094126;28;20388;-76
2022/03/08 00:05:39;;;;;;;17.30;9.38;;;;;;;-0.71;85.29;102240.81;5093135;28;20101;-74
2022/03/08 00:08:04;;;;;;;20.77;10.57;;;;;;;-0.70;85.23;102245.13;5074779;28;20028;-75
2022/03/08 00:10:30;;;;;;;16.75;8.95;;;;;;;-0.71;85.30;102242.59;5093278;28;20035;-73
2022/03/08 00:12:55;;;;;;;17.27;8.85;;;;;;;-0.74;85.17;102237.56;5093696;28;20040;-75
2022/03/08 00:15:24;;;;;;;20.92;10.35;;;;;;;-0.76;84.98;102235.06;5075583;28;20375;-75
2022/03/08 00:17:50;;;;;;;17.33;9.15;;;;;;;-0.76;84.80;102239.47;5092953;28;20044;-75
2022/03/08 00:23:37;;;;;;;18.73;9.52;;;;;;;-0.81;85.22;102237.16;5094228;28;20039;-74
2022/03/08 00:29:24;;;;;;;17.98;9.50;;;;;;;-0.86;84.92;102233.19;5094231;28;20055;-76
2022/03/08 00:31:49;;;;;;;15.38;9.20;;;;;;;-0.90;84.88;102222.03;5075441;28;20032;-77
2022/03/08 00:37:37;;;;;;;16.50;8.95;;;;;;;-0.87;84.49;102231.47;5093410;28;20081;-73
2022/03/08 00:40:05;;;;;;;17.00;9.75;;;;;;;-0.90;84.71;102226.44;5091970;28;20483;-74
2022/03/08 00:42:30;;;;;;;22.00;10.07;;;;;;;-0.86;84.35;102241.06;5092544;28;20556;-75
2022/03/08 00:44:56;;;;;;;19.48;10.45;;;;;;;-0.87;84.14;102227.06;5093562;28;20111;-76
2022/03/08 00:47:21;;;;;;;17.40;9.45;;;;;;;-0.85;84.35;102225.19;5092417;28;20127;-75
2022/03/08 00:49:46;;;;;;;18.30;10.35;;;;;;;-0.81;83.86;102234.53;5093367;28;20028;-76
2022/03/08 00:52:11;;;;;;;14.68;8.30;;;;;;;-0.82;83.23;102224.16;5092761;28;20154;-76
2022/03/08 00:54:37;;;;;;;22.55;9.90;;;;;;;-0.83;83.34;102220.69;5093018;28;20055;-76
2022/03/08 00:57:04;;;;;;;17.20;8.68;;;;;;;-0.85;83.46;102219.94;5093168;28;20044;-76
2022/03/08 00:59:29;;;;;;;19.92;10.35;;;;;;;-0.82;82.46;102226.78;5074424;28;20507;-77
2022/03/08 01:01:55;;;;;;;16.70;9.10;;;;;;;-0.82;83.08;102224.16;5093205;28;20032;-76
2022/03/08 01:04:20;;;;;;;16.27;8.88;;;;;;;-0.83;82.92;102222.47;5092358;28;20106;-75
2022/03/08 01:06:45;;;;;;;18.05;9.30;;;;;;;-0.82;82.27;102227.59;5092933;28;20067;-74
2022/03/08 01:09:11;;;;;;;17.98;9.45;;;;;;;-0.83;82.49;102222.47;5091687;28;20032;-74
2022/03/08 01:11:36;;;;;;;15.27;8.68;;;;;;;-0.86;82.71;102220.06;5078150;28;20047;-74
2022/03/08 01:17:23;;;;;;;14.73;8.27;;;;;;;-0.87;83.04;102220.97;5093261;28;20491;-75
2022/03/08 01:19:49;;;;;;;17.38;9.05;;;;;;;-0.88;82.69;102227.16;5074610;28;20036;-74
2022/03/08 01:22:14;;;;;;;15.27;8.52;;;;;;;-0.89;82.18;102217.59;5092074;28;20127;-75
2022/03/08 01:28:01;;;;;;;14.18;8.00;;;;;;;-0.85;82.25;102217.31;5092809;28;20046;-75
2022/03/08 01:30:27;;;;;;;15.40;9.07;;;;;;;-0.82;80.08;102214.47;5074661;28;20028;-74
2022/03/08 01:32:53;;;;;;;13.40;7.85;;;;;;;-0.76;80.13;102214.03;5074573;28;20146;-75
2022/03/08 01:35:18;;;;;;;15.43;7.80;;;;;;;-0.69;79.63;102207.41;5073984;28;20047;-75
2022/03/08 01:37:44;;;;;;;14.25;7.60;;;;;;;-0.72;79.67;102209.41;5092622;28;20032;-75
2022/03/08 01:40:14;;;;;;;12.02;7.82;;;;;;;-0.75;79.43;102201.75;5091830;28;20036;-75
2022/03/08 01:42:42;;;;;;;13.18;6.97;;;;;;;-0.72;79.58;102199.75;5074341;28;20032;-74
2022/03/08 01:45:08;;;;;;;15.43;8.00;;;;;;;-0.69;78.70;102189.03;5092448;28;20057;-73
2022/03/08 01:47:33;;;;;;;14.00;7.97;;;;;;;-0.69;79.28;102189.03;5091555;28;20044;-74
2022/03/08 01:49:58;;;;;;;12.15;6.88;;;;;;;-0.75;79.51;102181.59;5092414;28;20111;-74
2022/03/08 01:52:25;;;;;;;12.45;7.25;;;;;;;-0.73;79.27;102182.31;5073636;28;20040;-74
2022/03/08 01:54:51;;;;;;;14.95;7.43;;;;;;;-0.72;78.40;102186.63;5092564;28;20035;-74
2022/03/08 01:57:19;;;;;;;12.55;7.68;;;;;;;-0.73;77.65;102177.06;5092339;28;20436;-75
2022/03/08 01:59:45;;;;;;;13.93;7.47;;;;;;;-0.64;77.89;102176.41;5090486;28;20479;-74
2022/03/08 02:05:32;;;;;;;13.30;7.90;;;;;;;-0.63;78.30;102179.88;5092543;28;20062;-75
2022/03/08 02:07:57;;;;;;;11.82;7.28;;;;;;;-0.69;78.46;102164.56;5073860;28;20464;-75
2022/03/08 02:10:23;;;;;;;10.13;7.07;;;;;;;-0.63;77.99;102166.75;5091267;28;20187;-75
2022/03/08 02:12:49;;;;;;;15.90;6.97;;;;;;;-0.58;77.95;102169.03;5073881;28;20024;-74
2022/03/08 02:15:15;;;;;;;12.98;7.80;;;;;;;-0.56;77.76;102161.91;5092111;28;20028;-74
2022/03/08 02:21:05;;;;;;;14.23;7.00;;;;;;;-0.63;77.62;102156.25;5092307;28;20099;-76
2022/03/08 02:23:30;;;;;;;13.80;8.10;;;;;;;-0.64;77.97;102150.16;5091142;28;20068;-76
2022/03/08 02:29:17;;;;;;;11.55;6.93;;;;;;;-0.67;78.54;102146.91;5092144;28;20046;-75
2022/03/08 02:31:42;;;;;;;13.27;7.45;;;;;;;-0.74;78.32;102143.03;5095165;28;20020;-75
2022/03/08 02:34:08;;;;;;;12.07;7.13;;;;;;;-0.65;77.56;102142.38;5096595;28;20040;-76
2022/03/08 02:36:33;;;;;;;13.55;7.60;;;;;;;-0.64;77.50;102138.81;5080255;28;20069;-73
2022/03/08 02:38:59;;;;;;;12.57;7.60;;;;;;;-0.62;77.31;102139.53;5098386;28;20024;-74
2022/03/08 02:41:25;;;;;;;12.32;6.25;;;;;;;-0.56;77.38;102140.91;5079768;28;20097;-74
2022/03/08 02:43:50;;;;;;;13.38;7.20;;;;;;;-0.57;77.02;102132.19;5098531;28;20027;-73
2022/03/08 02:46:16;;;;;;;14.43;8.15;;;;;;;-0.63;77.44;102129.97;5079778;28;20043;-75
2022/03/08 02:48:41;;;;;;;14.55;7.22;;;;;;;-0.66;77.45;102133.66;5080188;28;20024;-74
2022/03/08 02:51:06;;;;;;;15.50;7.57;;;;;;;-0.65;77.62;102131.88;5080074;28;20441;-73
2022/03/08 02:53:32;;;;;;;13.25;7.13;;;;;;;-0.81;78.16;102111.13;5097520;28;20126;-75
2022/03/08 02:55:57;;;;;;;10.90;8.13;;;;;;;-0.78;78.63;102129.28;5098076;28;20401;-74
2022/03/08 02:58:23;;;;;;;12.52;8.32;;;;;;;-0.81;78.73;102131.31;5097312;28;20060;-74
2022/03/08 03:00:48;;;;;;;13.68;7.85;;;;;;;-0.81;79.31;102129.50;5080021;28;20022;-73
2022/03/08 03:03:14;;;;;;;14.73;8.45;;;;;;;-0.87;78.55;102119.41;5098154;28;20457;-74
2022/03/08 03:09:01;;;;;;;16.55;8.65;;;;;;;-0.96;79.34;102113.03;5098553;28;20051;-74
2022/03/08 03:11:26;;;;;;;13.80;7.55;;;;;;;-1.08;79.45;102094.69;5083181;28;20036;-75
2022/03/08 03:13:52;;;;;;;13.55;8.32;;;;;;;-1.03;79.54;102108.34;5098114;28;20031;-73
2022/03/08 03:16:17;;;;;;;15.98;8.43;;;;;;;-1.10;79.90;102092.19;5096181;28;20035;-73
2022/03/08 03:18:42;;;;;;;15.85;8.48;;;;;;;-1.10;80.15;102093.97;5079844;28;20039;-74
2022/03/08 03:21:08;;;;;;;16.63;8.43;;;;;;;-1.15;80.57;102089.06;5098026;28;20039;-74
2022/03/08 03:23:33;;;;;;;14.32;7.07;;;;;;;-1.19;80.47;102074.44;5097269;28;20127;-74
2022/03/08 03:25:58;;;;;;;13.07;7.85;;;;;;;-1.15;80.32;102072.47;5097852;28;20024;-74
2022/03/08 03:28:23;;;;;;;15.25;7.60;;;;;;;-1.19;80.28;102057.84;5097108;28;20101;-75
2022/03/08 03:30:49;;;;;;;13.35;7.30;;;;;;;-1.16;79.78;102071.59;5097900;28;20024;-75
2022/03/08 03:33:14;;;;;;;15.63;8.18;;;;;;;-1.20;79.84;102062.28;5097827;28;20028;-74
2022/03/08 03:39:01;;;;;;;14.82;8.00;;;;;;;-1.20;80.96;102077.19;5097984;28;20055;-74
2022/03/08 03:41:26;;;;;;;14.07;8.07;;;;;;;-1.25;81.25;102074.88;5096971;28;20044;-75
2022/03/08 03:43:51;;;;;;;15.95;8.02;;;;;;;-1.31;81.46;102080.56;5075565;28;20361;-75
2022/03/08 03:46:16;;;;;;;12.48;6.93;;;;;;;-1.26;80.86;102086.31;5094356;28;20031;-75
2022/03/08 03:48:42;;;;;;;14.05;8.30;;;;;;;-1.23;80.81;102083.47;5075678;28;20046;-74
2022/03/08 03:51:07;;;;;;;14.85;7.88;;;;;;;-1.20;80.78;102078.00;5092933;28;20047;-75
2022/03/08 03:53:33;;;;;;;13.18;7.97;;;;;;;-1.25;81.65;102088.84;5075611;28;20039;-73
2022/03/08 03:59:20;;;;;;;13.30;8.32;;;;;;;-1.36;82.38;102087.91;5094171;28;20096;-75
2022/03/08 04:01:45;;;;;;;10.75;7.07;;;;;;;-1.33;82.25;102087.69;5094136;28;20032;-75
2022/03/08 04:04:10;;;;;;;15.38;8.85;;;;;;;-1.37;81.54;102070.50;5075880;28;20107;-73
2022/03/08 04:06:36;;;;;;;13.70;8.52;;;;;;;-1.26;82.03;102081.91;5093122;28;20457;-75
2022/03/08 04:09:03;;;;;;;19.20;9.52;;;;;;;-1.30;82.59;102076.97;5094030;28;20055;-74
2022/03/08 04:11:28;;;;;;;13.35;8.60;;;;;;;-1.34;81.97;102065.88;5093026;28;20048;-75
2022/03/08 04:13:53;;;;;;;14.18;8.27;;;;;;;-1.29;81.52;102062.94;5093926;28;20070;-74
2022/03/08 04:16:19;;;;;;;15.90;9.00;;;;;;;-1.21;81.14;102070.25;5093887;28;20028;-74
2022/03/08 04:18:44;;;;;;;14.30;7.93;;;;;;;-1.21;81.01;102063.22;5093196;28;20127;-76
2022/03/08 04:21:09;;;;;;;16.67;8.48;;;;;;;-1.13;80.90;102067.94;5075560;28;20629;-77
2022/03/08 04:26:56;;;;;;;14.02;8.50;;;;;;;-1.07;80.52;102057.84;5094133;28;20075;-75
2022/03/08 04:29:21;;;;;;;14.27;8.48;;;;;;;-1.09;80.53;102061.53;5078636;28;20464;-75
2022/03/08 04:31:47;;;;;;;12.98;9.32;;;;;;;-1.04;80.03;102059.41;5093735;28;20024;-75
2022/03/08 04:34:12;;;;;;;17.80;9.55;;;;;;;-0.99;79.83;102054.69;5093614;28;20178;-75
2022/03/08 04:36:37;;;;;;;12.50;8.52;;;;;;;-0.99;80.35;102067.78;5092778;28;20385;-74
2022/03/08 04:39:03;;;;;;;16.83;8.40;;;;;;;-1.05;80.23;102058.59;5093463;28;20038;-75
2022/03/08 04:41:28;;;;;;;18.27;9.13;;;;;;;-1.10;79.99;102058.06;5091643;28;20384;-74
2022/03/08 04:43:54;;;;;;;16.67;8.45;;;;;;;-1.17;80.94;102061.22;5093385;28;20024;-75
2022/03/08 04:46:19;;;;;;;17.67;8.95;;;;;;;-1.20;81.23;102053.56;5074995;28;20392;-76
2022/03/08 04:48:44;;;;;;;12.80;8.23;;;;;;;-1.19;80.82;102053.44;5092960;28;20040;-75
2022/03/08 04:51:10;;;;;;;14.38;8.27;;;;;;;-1.13;81.17;102060.91;5075274;28;20036;-74
2022/03/08 04:53:35;;;;;;;15.05;8.55;;;;;;;-1.17;80.62;102066.47;5092361;28;20115;-73
2022/03/08 04:56:00;;;;;;;15.80;8.38;;;;;;;-1.19;81.35;102057.84;5093132;28;20024;-75
2022/03/08 04:58:26;;;;;;;14.00;8.57;;;;;;;-1.15;81.27;102070.69;5074565;28;20464;-74
2022/03/08 05:00:51;;;;;;;15.13;10.13;;;;;;;-1.15;80.98;102060.19;5093079;28;20054;-75
2022/03/08 05:03:16;;;;;;;15.88;8.98;;;;;;;-1.10;80.88;102062.47;5075089;28;20043;-75
2022/03/08 05:05:41;;;;;;;11.38;7.15;;;;;;;-1.28;81.08;102038.38;5078116;28;20439;-75
2022/03/08 05:08:07;;;;;;;14.68;8.45;;;;;;;-1.17;81.12;102061.22;5093158;28;20032;-75
2022/03/08 05:10:32;;;;;;;15.07;8.55;;;;;;;-1.23;81.81;102065.13;5074190;28;20515;-74
2022/03/08 05:12:59;;;;;;;19.85;9.23;;;;;;;-1.28;81.90;102054.09;5074871;28;20044;-75
2022/03/08 05:15:25;;;;;;;14.25;8.82;;;;;;;-1.30;81.69;102053.38;5092850;28;20024;-73
2022/03/08 05:17:51;;;;;;;14.45;9.00;;;;;;;-1.28;81.71;102046.22;5091976;28;20043;-74
2022/03/08 05:23:38;;;;;;;14.40;8.00;;;;;;;-1.30;81.35;102040.25;5092893;28;20089;-74
2022/03/08 05:29:24;;;;;;;13.88;8.18;;;;;;;-1.25;81.31;102046.84;5093075;28;20035;-73
2022/03/08 05:35:11;;;;;;;13.02;8.07;;;;;;;-1.22;81.87;102048.41;5092938;28;20169;-75
2022/03/08 05:37:37;;;;;;;13.70;7.95;;;;;;;-1.31;81.86;102052.53;5074572;28;20475;-74
2022/03/08 05:40:05;;;;;;;15.93;9.35;;;;;;;-1.38;81.61;102040.81;5090599;28;20054;-75
2022/03/08 05:42:30;;;;;;;18.33;9.90;;;;;;;-1.35;82.19;102047.63;5092623;28;20032;-74
2022/03/08 05:44:56;;;;;;;14.27;9.48;;;;;;;-1.36;81.98;102045.94;5092511;28;20031;-74
2022/03/08 05:47:21;;;;;;;14.35;9.32;;;;;;;-1.44;82.75;102033.38;5073640;28;20035;-75
2022/03/08 05:49:46;;;;;;;17.15;9.57;;;;;;;-1.41;82.88;102045.44;5092428;28;20082;-75
2022/03/08 05:52:12;;;;;;;12.30;8.27;;;;;;;-1.38;82.42;102053.06;5091769;28;20059;-74
2022/03/08 05:57:58;;;;;;;14.10;8.30;;;;;;;-1.40;83.04;102042.69;5092553;28;20515;-73
2022/03/08 06:03:46;;;;;;;12.95;6.45;;;;;;;-1.30;82.45;102050.75;5091763;28;20039;-73
2022/03/08 06:09:33;;;;;;;16.38;8.88;;;;;;;-1.36;83.67;102045.94;5092422;28;20113;-73
2022/03/08 06:11:58;;;;;;;14.07;8.68;;;;;;;-1.40;83.66;102034.00;5074156;28;20071;-76
2022/03/08 06:14:23;;;;;;;17.10;7.68;;;;;;;-1.38;83.72;102050.47;5092128;28;20103;-75
2022/03/08 06:20:10;;;;;;;16.23;7.50;;;;;;;-1.00;82.38;102056.47;5092638;28;20074;-73
2022/03/08 06:22:36;;;;;;;19.30;10.38;;;;;;;-0.74;81.79;102038.00;5077126;28;20048;-75
2022/03/08 06:25:02;;;;;;;16.00;9.98;;;;;;;-0.36;79.32;102038.66;5073774;28;20050;-76
2022/03/08 06:27:28;;;;;;;14.95;8.98;;;;;;;0.04;77.01;102048.84;5091064;28;21373;-75
2022/03/08 06:29:53;;;;;;;15.35;10.13;;;;;;;0.35;74.48;102041.25;5091744;28;20496;-74
2022/03/08 06:32:19;;;;;;;14.35;9.60;;;;;;;0.67;73.23;102042.22;5091935;28;20019;-74
2022/03/08 06:38:06;;;;;;;15.18;9.43;;;;;;;1.48;69.79;102033.09;5092002;28;20047;-73
2022/03/08 06:40:32;;;;;;;12.50;8.52;;;;;;;1.74;68.05;102036.22;5076861;28;20036;-73
2022/03/08 06:46:19;;;;;;;10.02;6.10;;;;;;;2.46;66.56;102052.06;5092032;28;20093;-72
2022/03/08 06:52:07;;;;;;;13.27;9.13;;;;;;;3.01;61.92;102036.72;5092067;28;20127;-72
2022/03/08 06:57:54;;;;;;;14.20;9.32;;;;;;;3.58;59.55;102045.72;5092167;28;20070;-73
2022/03/08 07:00:20;;;;;;;14.38;8.32;;;;;;;3.80;58.17;102061.31;5091672;28;20127;-74
2022/03/08 07:06:06;;;;;;;13.73;9.63;;;;;;;4.00;57.17;102043.59;5091768;28;20047;-75
2022/03/08 07:11:53;;;;;;;14.50;7.55;;;;;;;4.46;56.23;102044.63;5091456;28;20101;-75
2022/03/08 07:17:45;;;;;;;13.90;7.95;;;;;;;4.94;53.66;102055.03;5092709;28;20043;-73
2022/03/08 07:23:32;;;;;;;13.77;9.90;;;;;;;5.52;51.94;102052.84;5094908;28;20051;-74
2022/03/08 07:29:19;;;;;;;14.38;9.05;;;;;;;5.89;50.70;102058.03;5095297;28;20058;-73
2022/03/08 07:35:06;;;;;;;14.68;9.43;;;;;;;5.89;49.47;102046.53;5094548;28;20089;-73
2022/03/08 07:37:36;;;;;;;12.30;9.65;;;;;;;6.14;49.85;102043.13;5094383;28;20099;-74
2022/03/08 07:40:05;;;;;;;13.02;9.70;;;;;;;6.17;48.64;102050.78;5093539;28;20047;-74
2022/03/08 07:42:30;;;;;;;15.50;8.50;;;;;;;5.75;50.03;102039.94;5076149;28;20024;-74
2022/03/08 07:44:55;;;;;;;11.90;7.90;;;;;;;6.03;49.81;102053.97;5075433;28;20404;-73
2022/03/08 07:47:21;;;;;;;12.18;8.05;;;;;;;5.99;49.65;102035.84;5094229;28;20047;-72
2022/03/08 07:53:08;;;;;;;12.05;7.50;;;;;;;6.22;48.55;102037.03;5094476;28;20066;-73
2022/03/08 07:55:34;;;;;;;11.07;8.23;;;;;;;6.34;49.33;102038.41;5076137;28;20504;-74
2022/03/08 07:58:01;;;;;;;13.13;9.27;;;;;;;6.37;47.41;102037.31;5093412;28;20040;-73
2022/03/08 08:00:27;;;;;;;15.27;7.07;;;;;;;6.58;47.26;102066.13;5076030;28;20024;-73
2022/03/08 08:02:52;;;;;;;13.45;8.70;;;;;;;6.53;47.74;102055.97;5093235;28;20507;-73
2022/03/08 08:08:39;;;;;;;12.63;9.32;;;;;;;6.98;45.98;102055.69;5094086;28;20047;-74
2022/03/08 08:11:05;;;;;;;11.48;8.02;;;;;;;7.17;46.11;102043.94;5075614;28;20024;-76
2022/03/08 08:16:51;;;;;;;16.17;9.73;;;;;;;7.28;46.22;102042.84;5093965;28;20043;-75
2022/03/08 08:19:17;;;;;;;11.77;7.60;;;;;;;7.64;44.42;102059.34;5075314;28;20028;-77
2022/03/08 08:25:06;;;;;;;12.68;8.25;;;;;;;7.13;45.70;102047.94;5093579;28;20051;-74
2022/03/08 08:27:31;;;;;;;13.45;7.93;;;;;;;7.27;44.54;102068.59;5093492;28;20051;-73
2022/03/08 08:29:57;;;;;;;12.90;9.35;;;;;;;7.44;44.50;102045.50;5074912;28;20038;-74
2022/03/08 08:32:22;;;;;;;13.07;8.00;;;;;;;7.93;43.49;102069.53;5074841;28;20040;-73
2022/03/08 08:34:47;;;;;;;12.30;7.25;;;;;;;7.87;43.52;102057.72;5093649;28;20035;-75
2022/03/08 08:37:12;;;;;;;12.13;8.70;;;;;;;7.13;43.60;102062.06;5092651;28;20091;-73
2022/03/08 08:39:38;;;;;;;9.75;7.15;;;;;;;6.53;45.37;102063.94;5093541;28;20031;-73
2022/03/08 08:42:04;;;;;;;11.98;8.45;;;;;;;6.34;45.54;102074.78;5093548;28;20040;-76
2022/03/08 08:47:51;;;;;;;9.43;6.97;;;;;;;5.78;47.55;102044.09;5093493;28;20055;-76
2022/03/08 08:50:16;;;;;;;11.80;7.75;;;;;;;6.00;46.60;102042.84;5078458;28;20500;-76
2022/03/08 08:56:04;;;;;;;10.30;6.82;;;;;;;6.62;44.77;102039.06;5093399;28;20184;-75
2022/03/08 08:58:29;;;;;;;10.90;7.93;;;;;;;6.79;46.00;102037.34;5093094;28;20040;-75
2022/03/08 09:00:54;;;;;;;9.85;7.03;;;;;;;7.33;44.43;102033.34;5092396;28;20040;-75
2022/03/08 09:06:41;;;;;;;9.88;6.78;;;;;;;7.90;41.84;102043.22;5093174;28;20092;-73
2022/03/08 09:09:07;;;;;;;11.30;7.40;;;;;;;8.41;41.20;102051.88;5093029;28;20485;-74
2022/03/08 09:14:54;;;;;;;11.18;7.88;;;;;;;9.12;38.66;102037.59;5093545;28;20752;-74
2022/03/08 09:17:20;;;;;;;10.02;8.05;;;;;;;9.06;38.15;102047.13;5091745;28;20032;-75
2022/03/08 09:19:45;;;;;;;12.52;7.03;;;;;;;8.91;39.86;102027.53;5092188;28;20048;-73
2022/03/08 09:22:10;;;;;;;10.57;7.27;;;;;;;8.91;38.40;102078.19;5074674;28;20028;-74
2022/03/08 09:24:37;;;;;;;8.07;6.17;;;;;;;8.54;39.66;102038.84;5091879;28;20282;-78
2022/03/08 09:27:03;;;;;;;9.75;7.45;;;;;;;8.99;37.69;102014.16;5074579;28;20328;-74
2022/03/08 09:32:51;;;;;;;8.75;6.80;;;;;;;9.38;38.15;102015.94;5093201;28;20051;-80
2022/03/08 09:35:16;;;;;;;9.73;6.63;;;;;;;9.68;38.08;102008.88;5090816;28;20027;-75
2022/03/08 09:37:41;;;;;;;14.00;7.30;;;;;;;9.98;36.65;102010.59;5074031;28;20047;-76
2022/03/08 09:43:33;;;;;;;9.75;7.30;;;;;;;9.48;36.09;101990.66;5092626;28;20324;-79
2022/03/08 09:49:20;;;;;;;8.77;7.13;;;;;;;9.31;35.76;101997.97;5093266;28;20074;-81
2022/03/08 09:51:52;;;;;;;9.70;7.38;;;;;;;9.09;36.44;102017.44;5074485;28;20119;-81
2022/03/08 09:54:20;;;;;;;9.80;7.15;;;;;;;8.88;37.56;102018.03;5092006;28;20150;-80
2022/03/08 10:00:09;;;;;;;12.75;7.18;;;;;;;9.16;36.51;102001.56;5093164;28;20059;-76
2022/03/08 10:05:57;;;;;;;9.32;6.47;;;;;;;9.30;36.05;102008.81;5092781;28;20400;-74
2022/03/08 10:11:44;;;;;;;10.43;7.00;;;;;;;9.75;37.62;101985.75;5092620;28;20097;-74
2022/03/08 10:17:36;;;;;;;8.00;5.63;;;;;;;9.67;35.82;101997.34;5092466;28;20536;-78
2022/03/08 10:20:04;;;;;;;9.82;7.07;;;;;;;9.56;35.96;101989.78;5092167;28;20059;-74
2022/03/08 10:22:32;;;;;;;9.35;6.63;;;;;;;9.84;34.93;101990.88;5071958;28;20243;-77
2022/03/08 10:25:17;;;;;;;8.98;7.43;;;;;;;9.20;36.84;101997.50;5091976;28;20486;-75
2022/03/08 10:28:04;;;;;;;10.15;7.00;;;;;;;9.37;37.17;101977.72;5091177;28;20132;-74
2022/03/08 10:30:50;;;;;;;7.10;5.72;;;;;;;9.14;38.49;101977.72;5092057;28;20032;-76
2022/03/08 10:36:41;;;;;;;15.63;6.82;;;;;;;9.26;37.49;101973.66;5092517;28;20059;-75
2022/03/08 10:42:34;;;;;;;9.82;6.45;;;;;;;9.37;36.72;101988.41;5092827;28;20043;-78
2022/03/08 10:45:07;;;;;;;7.68;6.60;;;;;;;9.19;36.40;101977.19;5073304;28;20024;-76
2022/03/08 10:47:47;;;;;;;14.02;6.85;;;;;;;9.49;37.58;101962.94;5073673;28;20044;-75
2022/03/08 10:53:34;;;;;;;9.88;5.90;;;;;;;9.50;37.05;101959.25;5094815;28;20425;-76
2022/03/08 10:55:59;;;;;;;11.13;5.30;;;;;;;9.83;37.48;101951.81;5095231;28;20107;-76
2022/03/08 10:58:25;;;;;;;8.65;6.57;;;;;;;10.00;35.87;101941.78;5076649;28;20282;-75
2022/03/08 11:00:58;;;;;;;9.97;6.83;;;;;;;10.04;37.98;101952.94;5095400;28;20028;-75
2022/03/08 11:03:25;;;;;;;9.55;6.75;;;;;;;10.05;35.23;101955.41;5076531;28;20290;-79
2022/03/08 11:09:13;;;;;;;8.77;6.47;;;;;;;9.69;35.46;101976.63;5095601;28;20105;-78
2022/03/08 11:11:38;;;;;;;8.70;6.25;;;;;;;9.16;38.13;101953.53;5093889;28;20027;-79
2022/03/08 11:14:03;;;;;;;8.77;6.85;;;;;;;9.09;37.88;101928.56;5095194;28;20040;-78
2022/03/08 11:16:31;;;;;;;11.80;6.95;;;;;;;8.81;39.60;101946.91;5076573;28;20498;-76
2022/03/08 11:18:56;;;;;;;8.68;6.97;;;;;;;8.90;37.93;101948.50;5094970;28;20107;-77
2022/03/08 11:21:23;;;;;;;10.40;6.60;;;;;;;8.67;38.38;101935.13;5094130;28;20131;-76
2022/03/08 11:23:51;;;;;;;10.57;7.25;;;;;;;8.57;39.74;101951.34;5094992;28;20025;-76
2022/03/08 11:26:16;;;;;;;10.30;7.30;;;;;;;8.68;41.16;101932.31;5076192;28;20499;-76
2022/03/08 11:28:47;;;;;;;8.18;6.90;;;;;;;8.90;38.85;101944.00;5094604;28;20044;-77
2022/03/08 11:31:17;;;;;;;9.82;6.93;;;;;;;9.16;38.30;101938.34;5094907;28;20036;-77
2022/03/08 11:33:59;;;;;;;11.60;7.63;;;;;;;9.63;37.05;101935.47;5093049;28;20411;-76
2022/03/08 11:36:35;;;;;;;9.17;7.43;;;;;;;10.38;35.76;101957.75;5094821;28;20111;-76
2022/03/08 11:39:12;;;;;;;12.63;7.28;;;;;;;10.20;35.28;101916.22;5093823;28;20536;-77
2022/03/08 11:45:03;;;;;;;9.77;6.45;;;;;;;9.27;36.38;101924.59;5094875;28;20557;-78
2022/03/08 11:50:50;;;;;;;7.60;5.97;;;;;;;9.95;36.53;101928.16;5095025;28;20120;-77
2022/03/08 11:53:18;;;;;;;11.18;6.35;;;;;;;10.64;34.45;101915.31;5094695;28;20028;-78
2022/03/08 11:59:10;;;;;;;8.63;5.85;;;;;;;11.44;33.39;101904.38;5094994;28;20119;-77
2022/03/08 12:04:57;;;;;;;8.25;6.05;;;;;;;12.35;32.04;101875.69;5093407;28;20458;-75
2022/03/08 12:10:44;;;;;;;8.95;6.32;;;;;;;12.83;29.56;101891.75;5094623;28;20131;-77
2022/03/08 12:13:11;;;;;;;11.00;6.90;;;;;;;13.27;29.70;101885.03;5076037;28;20055;-76
2022/03/08 12:16:05;;;;;;;8.25;6.57;;;;;;;13.62;28.35;101899.09;5093573;28;20046;-74
2022/03/08 12:21:55;;;;;;;9.73;6.25;;;;;;;11.06;32.62;101905.69;5094780;28;20043;-78
2022/03/08 12:27:50;;;;;;;10.05;6.25;;;;;;;10.74;34.43;101885.59;5094266;28;20051;-77
2022/03/08 12:30:15;;;;;;;9.30;5.90;;;;;;;11.02;33.29;101878.47;5093994;28;20388;-77
2022/03/08 12:32:43;;;;;;;10.60;6.50;;;;;;;11.26;33.47;101884.44;5093263;28;20043;-77
2022/03/08 12:38:39;;;;;;;9.60;6.22;;;;;;;11.32;32.80;101886.38;5093940;28;20043;-81
2022/03/08 12:44:26;;;;;;;9.13;6.80;;;;;;;11.38;32.07;101889.09;5094207;28;20439;-79
2022/03/08 12:46:51;;;;;;;9.38;7.30;;;;;;;11.36;32.09;101883.09;5093570;28;20055;-76
2022/03/08 12:49:18;;;;;;;13.00;7.32;;;;;;;11.30;32.32;101891.09;5092765;28;20036;-80
2022/03/08 12:55:08;;;;;;;9.68;7.00;;;;;;;11.49;32.26;101861.78;5094073;28;20054;-83
2022/03/08 12:57:43;;;;;;;10.23;6.88;;;;;;;11.69;32.41;101856.56;5093567;28;20031;-82
2022/03/08 13:03:34;;;;;;;9.43;6.68;;;;;;;12.21;30.70;101862.44;5093371;28;20062;-79
2022/03/08 13:09:20;;;;;;;12.68;6.68;;;;;;;11.43;31.80;101840.31;5093887;28;20051;-79
2022/03/08 13:11:45;;;;;;;9.05;6.38;;;;;;;11.82;33.46;101842.44;5092620;28;20032;-79
2022/03/08 13:14:11;;;;;;;12.53;7.53;;;;;;;11.61;31.08;101856.72;5093141;28;20020;-79
2022/03/08 13:16:37;;;;;;;9.15;6.38;;;;;;;11.28;32.55;101852.97;5074779;28;20684;-79
2022/03/08 13:19:03;;;;;;;8.75;5.85;;;;;;;11.54;33.90;101863.88;5092351;28;20040;-82
2022/03/08 13:21:28;;;;;;;8.25;5.70;;;;;;;12.13;31.66;101851.88;5093415;28;20469;-80
2022/03/08 13:23:56;;;;;;;13.35;7.80;;;;;;;11.64;32.59;101844.78;5092449;28;20048;-82
2022/03/08 13:29:16;;;;;;;9.10;6.72;;;;;;;11.17;32.99;101840.91;5093396;28;20051;-79
2022/03/08 13:35:03;;;;;;;10.80;7.15;;;;;;;10.90;32.94;101847.06;5093352;28;20922;-80
2022/03/08 13:44:15;;;;;;;11.20;6.65;;;;;;;10.13;34.96;101842.28;5093381;28;20039;-84
2022/03/08 13:46:45;;;;;;;10.40;7.05;;;;;;;10.24;34.83;101865.88;5093549;28;20024;-85
2022/03/08 13:52:33;;;;;;;11.38;6.95;;;;;;;10.38;35.07;101848.97;5093282;28;20042;-82
2022/03/08 13:54:59;;;;;;;9.50;6.10;;;;;;;10.84;33.47;101832.59;5093586;28;20046;-80
2022/03/08 13:57:24;;;;;;;11.93;7.10;;;;;;;11.04;32.29;101855.03;5075349;28;20495;-87
2022/03/08 14:03:13;;;;;;;12.45;8.02;;;;;;;10.77;35.14;101843.25;5092846;28;20515;-82
2022/03/08 14:09:01;;;;;;;7.43;6.00;;;;;;;10.33;35.50;101829.16;5092826;28;20097;-82
2022/03/08 14:11:26;;;;;;;8.20;6.22;;;;;;;10.13;34.31;101832.41;5092469;28;20496;-85
2022/03/08 14:13:53;;;;;;;9.07;6.57;;;;;;;10.23;34.11;101842.84;5094328;28;20036;-82
2022/03/08 14:16:21;;;;;;;10.20;6.53;;;;;;;10.01;33.78;101841.06;5093675;28;20081;-83
2022/03/08 14:22:08;;;;;;;10.85;6.70;;;;;;;9.89;35.07;101835.38;5092908;28;20050;-81
2022/03/08 14:27:55;;;;;;;8.93;6.90;;;;;;;9.64;35.38;101837.50;5090777;28;20347;-80
2022/03/08 14:34:04;;;;;;;11.65;7.85;;;;;;;9.44;36.80;101829.19;5092580;28;20131;-78
2022/03/08 14:36:42;;;;;;;7.50;6.20;;;;;;;9.45;35.80;101814.00;5073872;28;20051;-78
2022/03/08 14:39:16;;;;;;;11.27;7.25;;;;;;;9.31;37.77;101812.97;5092374;28;20503;-85
2022/03/08 14:41:52;;;;;;;11.75;7.10;;;;;;;9.28;36.25;101814.16;5068632;28;20055;-84
2022/03/08 14:47:39;;;;;;;15.35;6.32;;;;;;;9.35;37.40;101822.28;5091958;28;20101;-77
2022/03/08 14:50:07;;;;;;;9.80;6.10;;;;;;;9.41;36.29;101818.88;5073770;28;20028;-78
2022/03/08 14:52:35;;;;;;;11.15;6.38;;;;;;;9.34;36.66;101815.28;5077014;28;20050;-78
2022/03/08 14:55:04;;;;;;;10.52;7.40;;;;;;;9.36;36.97;101815.09;5091807;28;20016;-78
2022/03/08 14:57:30;;;;;;;7.97;6.28;;;;;;;9.44;37.05;101813.16;5073045;28;20082;-77
2022/03/08 15:03:17;;;;;;;10.48;6.07;;;;;;;9.43;35.51;101819.50;5091712;28;20040;-77
2022/03/08 15:05:42;;;;;;;13.38;6.32;;;;;;;9.43;37.10;101816.84;5073572;28;20028;-76
2022/03/08 15:11:32;;;;;;;10.55;7.20;;;;;;;9.26;35.79;101800.19;5091956;28;20204;-81
2022/03/08 15:13:57;;;;;;;8.77;6.53;;;;;;;9.33;36.28;101832.31;5090510;28;20024;-84
2022/03/08 15:16:22;;;;;;;9.38;6.80;;;;;;;9.31;35.89;101829.81;5060173;28;20503;-76
2022/03/08 15:18:56;;;;;;;10.67;6.73;;;;;;;9.31;35.53;101829.81;5091568;28;20024;-81
2022/03/08 15:21:23;;;;;;;10.45;6.32;;;;;;;9.37;35.27;101808.75;5089633;28;20381;-78
2022/03/08 15:27:10;;;;;;;13.68;6.45;;;;;;;9.32;35.08;101804.78;5091487;28;20082;-77